Calumet Park, Illinois
Current Conditions -  °F | °C
As of 8:35 PM on Sunday 25 Jan 2015 (Local Time) from KIGQ Reporting Station
Overcast Overcast  
Wind Chill: 16°   Ceiling: 2200
Heat Index: 27°   Visibility: 10mi
Dew Point: 20°   Wind: 12mph
Humidity: 77%   Direction: 30°NNE
Pressure: 29.96"   Gusts: NA
Location:  41.6438°N, 87.6214°W
Report Text: KIGQ 260235Z AUTO 03010KT 10SM BKN022 OVC032 M03/M06 A2996 RMK AO2 T10291065
Loading
Personal Weather Stations






























Interactive Weather Map New forecast layout! Learn more

10-Day Weather Forecast

Advertisements
Track Severe Weather on mobile